Time,TemperatureF,DewpointF,PressureIn,WindDirection,WindDirectionDegrees,WindSpeedMPH,WindSpeedGustMPH,Humidity,HourlyPrecipIn,Conditions,Clouds,dailyrainin,SoftwareType,DateUTC
2013-05-28 00:02:00,-10.0,-99.9,-100.00,North,0,0.0,-999.0,-999,-99.99,,,-99.99,,2013-05-28 05:02:00,
2013-05-28 01:02:00,-36.0,-36.0,-100.00,North,0,0.0,-999.0,96,-99.99,,,-99.99,,2013-05-28 06:02:00,
2013-05-28 01:12:00,-37.0,-37.0,-100.00,North,0,0.0,-999.0,96,-99.99,,,-99.99,,2013-05-28 06:12:00,
2013-05-28 01:21:00,-36.0,-37.0,-100.00,North,0,0.0,-999.0,95,-99.99,,,-99.99,,2013-05-28 06:21:00,
2013-05-28 01:32:00,-36.0,-37.0,-100.00,North,0,0.0,-999.0,96,-99.99,,,-99.99,,2013-05-28 06:32:00,
2013-05-28 01:42:00,-36.0,-37.0,-100.00,North,0,0.0,-999.0,95,-99.99,,,-99.99,,2013-05-28 06:42:00,
2013-05-28 01:51:00,-36.0,-37.0,-100.00,North,0,0.0,-999.0,95,-99.99,,,-99.99,,2013-05-28 06:51:00,
2013-05-28 02:01:00,-36.0,-37.0,-100.00,North,0,0.0,-999.0,95,-99.99,,,-99.99,,2013-05-28 07:01:00,
2013-05-28 02:11:00,-36.0,-37.0,-100.00,North,0,0.0,-999.0,95,-99.99,,,-99.99,,2013-05-28 07:11:00,
2013-05-28 02:21:00,-36.0,-37.0,-100.00,North,0,0.0,-999.0,95,-99.99,,,-99.99,,2013-05-28 07:21:00,
2013-05-28 02:32:00,-36.0,-37.0,-100.00,North,0,0.0,-999.0,95,-99.99,,,-99.99,,2013-05-28 07:32:00,
2013-05-28 02:42:00,-36.0,-37.0,-100.00,North,0,0.0,-999.0,95,-99.99,,,-99.99,,2013-05-28 07:42:00,
2013-05-28 02:52:00,-36.0,-37.0,-100.00,North,0,0.0,-999.0,95,-99.99,,,-99.99,,2013-05-28 07:52:00,
2013-05-28 03:02:00,-36.0,-37.0,-100.00,North,0,0.0,-999.0,95,-99.99,,,-99.99,,2013-05-28 08:02:00,
2013-05-28 03:12:00,-36.0,-37.0,-100.00,North,0,0.0,-999.0,95,-99.99,,,-99.99,,2013-05-28 08:12:00,
2013-05-28 03:22:00,-36.0,-37.0,-100.00,North,0,0.0,-999.0,95,-99.99,,,-99.99,,2013-05-28 08:22:00,
2013-05-28 03:32:00,-36.0,-37.0,-100.00,North,0,0.0,-999.0,95,-99.99,,,-99.99,,2013-05-28 08:32:00,
2013-05-28 03:42:00,-36.0,-37.0,-100.00,North,0,0.0,-999.0,95,-99.99,,,-99.99,,2013-05-28 08:42:00,
2013-05-28 03:51:00,-36.0,-37.0,-100.00,North,0,0.0,-999.0,95,-99.99,,,-99.99,,2013-05-28 08:51:00,
2013-05-28 04:01:00,-36.0,-36.0,-100.00,North,0,0.0,-999.0,97,-99.99,,,-99.99,,2013-05-28 09:01:00,
2013-05-28 04:11:00,-36.0,-36.0,-100.00,North,0,0.0,-999.0,98,-99.99,,,-99.99,,2013-05-28 09:11:00,
2013-05-28 04:21:00,-35.0,-36.0,-100.00,North,0,0.0,-999.0,98,-99.99,,,-99.99,,2013-05-28 09:21:00,
2013-05-28 04:33:00,-36.0,-36.0,-100.00,North,0,0.0,-999.0,98,-99.99,,,-99.99,,2013-05-28 09:33:00,
2013-05-28 04:42:00,-36.0,-36.0,-100.00,North,0,0.0,-999.0,98,-99.99,,,-99.99,,2013-05-28 09:42:00,
2013-05-28 04:53:00,-36.0,-36.0,-100.00,North,0,0.0,-999.0,98,-99.99,,,-99.99,,2013-05-28 09:53:00,
2013-05-28 05:03:00,-36.0,-36.0,-100.00,North,0,0.0,-999.0,98,-99.99,,,-99.99,,2013-05-28 10:03:00,
2013-05-28 05:12:00,-36.0,-36.0,-100.00,North,0,0.0,-999.0,98,-99.99,,,-99.99,,2013-05-28 10:12:00,
2013-05-28 05:23:00,-36.0,-99.9,-100.00,North,0,0.0,-999.0,-999,-99.99,,,-99.99,,2013-05-28 10:23:00,
2013-05-28 05:33:00,-35.0,-99.9,-100.00,North,0,0.0,-999.0,-999,-99.99,,,-99.99,,2013-05-28 10:33:00,
2013-05-28 06:32:00,-18.0,-19.0,-100.00,North,0,0.0,-999.0,98,-99.99,,,-99.99,,2013-05-28 11:32:00,
2013-05-28 06:42:00,17.0,17.0,-100.00,North,0,0.0,-999.0,98,-99.99,,,-99.99,,2013-05-28 11:42:00,
2013-05-28 06:52:00,50.0,50.0,-100.00,North,0,0.0,-999.0,97,-99.99,,,-99.99,,2013-05-28 11:52:00,
2013-05-28 07:01:00,51.0,50.0,-100.00,North,0,0.0,-999.0,97,-99.99,,,-99.99,,2013-05-28 12:01:00,
2013-05-28 07:11:00,51.0,50.0,-100.00,North,0,0.0,-999.0,97,-99.99,,,-99.99,,2013-05-28 12:11:00,
2013-05-28 07:21:00,51.0,50.0,-100.00,North,0,0.0,-999.0,97,-99.99,,,-99.99,,2013-05-28 12:21:00,
2013-05-28 07:42:00,52.0,51.0,-100.00,North,0,0.0,-999.0,97,-99.99,,,-99.99,,2013-05-28 12:42:00,
2013-05-28 07:52:00,52.0,51.0,-100.00,North,0,0.0,-999.0,97,-99.99,,,-99.99,,2013-05-28 12:52:00,
2013-05-28 08:01:00,52.0,51.0,-100.00,North,0,0.0,-999.0,97,-99.99,,,-99.99,,2013-05-28 13:01:00,
2013-05-28 08:11:00,52.0,51.0,-100.00,North,0,0.0,-999.0,97,-99.99,,,-99.99,,2013-05-28 13:11:00,
2013-05-28 08:21:00,52.0,52.0,-100.00,North,0,0.0,-999.0,97,-99.99,,,-99.99,,2013-05-28 13:21:00,
2013-05-28 08:32:00,52.0,51.0,-100.00,North,0,0.0,-999.0,97,-99.99,,,-99.99,,2013-05-28 13:32:00,
2013-05-28 08:42:00,52.0,51.0,-100.00,North,0,0.0,-999.0,97,-99.99,,,-99.99,,2013-05-28 13:42:00,
2013-05-28 08:52:00,52.0,51.0,-100.00,North,0,0.0,-999.0,98,-99.99,,,-99.99,,2013-05-28 13:52:00,
2013-05-28 09:02:00,52.0,51.0,-100.00,North,0,0.0,-999.0,98,-99.99,,,-99.99,,2013-05-28 14:02:00,
2013-05-28 09:11:00,51.0,51.0,-100.00,North,0,0.0,-999.0,98,-99.99,,,-99.99,,2013-05-28 14:11:00,
2013-05-28 09:21:00,52.0,52.0,-100.00,North,0,0.0,-999.0,98,-99.99,,,-99.99,,2013-05-28 14:21:00,
2013-05-28 09:32:00,54.0,49.0,-100.00,North,0,0.0,-999.0,83,-99.99,,,-99.99,,2013-05-28 14:32:00,
2013-05-28 09:42:00,55.0,48.0,-100.00,North,0,0.0,-999.0,77,-99.99,,,-99.99,,2013-05-28 14:42:00,
2013-05-28 09:52:00,54.0,46.0,-100.00,North,0,0.0,-999.0,73,-99.99,,,-99.99,,2013-05-28 14:52:00,
2013-05-28 10:11:00,59.0,47.0,-100.00,North,0,0.0,-999.0,64,-99.99,,,-99.99,,2013-05-28 15:11:00,
2013-05-28 10:43:00,29.0,26.0,-100.00,North,0,0.0,-999.0,86,-99.99,,,-99.99,,2013-05-28 15:43:00,
2013-05-28 11:12:00,30.0,29.0,-100.00,North,0,0.0,-999.0,95,-99.99,,,-99.99,,2013-05-28 16:12:00,
2013-05-28 11:22:00,30.0,29.0,-100.00,North,0,0.0,-999.0,95,-99.99,,,-99.99,,2013-05-28 16:22:00,
2013-05-28 11:33:00,31.0,26.0,-100.00,North,0,0.0,-999.0,83,-99.99,,,-99.99,,2013-05-28 16:33:00,
2013-05-28 11:42:00,44.0,-99.9,-100.00,North,0,0.0,-999.0,-999,-99.99,,,-99.99,,2013-05-28 16:42:00,
2013-05-28 11:52:00,41.0,32.0,-100.00,North,-999,0.0,-999.0,69,-99.99,,,-99.99,,2013-05-28 16:52:00,
2013-05-28 12:02:00,50.0,49.0,-100.00,North,0,0.0,-999.0,97,-99.99,,,-99.99,,2013-05-28 17:02:00,
2013-05-28 12:12:00,51.0,43.0,-100.00,North,0,0.0,-999.0,75,-99.99,,,-99.99,,2013-05-28 17:12:00,
2013-05-28 12:22:00,44.0,43.0,-100.00,North,0,0.0,-999.0,98,-99.99,,,-99.99,,2013-05-28 17:22:00,
2013-05-28 12:32:00,33.0,33.0,-100.00,North,0,0.0,-999.0,98,-99.99,,,-99.99,,2013-05-28 17:32:00,
2013-05-28 12:42:00,46.0,-99.9,-100.00,North,0,0.0,-999.0,-999,-99.99,,,-99.99,,2013-05-28 17:42:00,
2013-05-28 12:51:00,45.0,44.0,-100.00,North,0,0.0,-999.0,96,-99.99,,,-99.99,,2013-05-28 17:51:00,
2013-05-28 13:01:00,46.0,45.0,-100.00,North,0,0.0,-999.0,97,-99.99,,,-99.99,,2013-05-28 18:01:00,
2013-05-28 13:11:00,56.0,55.0,-100.00,North,0,0.0,-999.0,94,-99.99,,,-99.99,,2013-05-28 18:11:00,
2013-05-28 13:21:00,69.0,66.0,-100.00,North,0,0.0,-999.0,88,-99.99,,,-99.99,,2013-05-28 18:21:00,
2013-05-28 13:32:00,68.0,65.0,-100.00,North,0,0.0,-999.0,90,-99.99,,,-99.99,,2013-05-28 18:32:00,
2013-05-28 13:42:00,67.0,65.0,-100.00,North,0,0.0,-999.0,92,-99.99,,,-99.99,,2013-05-28 18:42:00,
2013-05-28 13:52:00,67.0,65.0,-100.00,North,0,0.0,-999.0,92,-99.99,,,-99.99,,2013-05-28 18:52:00,
2013-05-28 14:01:00,66.0,63.0,-100.00,North,-999,0.0,-999.0,88,-99.99,,,-99.99,,2013-05-28 19:01:00,
2013-05-28 14:11:00,67.0,63.0,-100.00,North,0,0.0,-999.0,86,-99.99,,,-99.99,,2013-05-28 19:11:00,
2013-05-28 14:21:00,71.0,65.0,-100.00,North,0,0.0,-999.0,83,-99.99,,,-99.99,,2013-05-28 19:21:00,
2013-05-28 14:32:00,72.0,65.0,-100.00,North,0,0.0,-999.0,81,-99.99,,,-99.99,,2013-05-28 19:32:00,
2013-05-28 14:42:00,71.0,63.0,-100.00,North,0,0.0,-999.0,78,-99.99,,,-99.99,,2013-05-28 19:42:00,
2013-05-28 14:52:00,71.0,64.0,-100.00,North,0,0.0,-999.0,79,-99.99,,,-99.99,,2013-05-28 19:52:00,
2013-05-28 15:01:00,71.0,63.0,-100.00,North,0,0.0,-999.0,77,-99.99,,,-99.99,,2013-05-28 20:01:00,
2013-05-28 15:11:00,71.0,63.0,-100.00,North,0,0.0,-999.0,75,-99.99,,,-99.99,,2013-05-28 20:11:00,
2013-05-28 15:42:00,71.0,64.0,-100.00,North,0,0.0,-999.0,78,-99.99,,,-99.99,,2013-05-28 20:42:00,
2013-05-28 15:52:00,69.0,58.0,-100.00,North,0,0.0,-999.0,69,-99.99,,,-99.99,,2013-05-28 20:52:00,
2013-05-28 16:02:00,73.0,63.0,-100.00,North,0,0.0,-999.0,71,-99.99,,,-99.99,,2013-05-28 21:02:00,
2013-05-28 16:11:00,73.0,63.0,-100.00,North,0,0.0,-999.0,72,-99.99,,,-99.99,,2013-05-28 21:11:00,
2013-05-28 16:21:00,44.0,28.0,-100.00,North,0,0.0,-999.0,53,-99.99,,,-99.99,,2013-05-28 21:21:00,
2013-05-28 16:43:00,39.0,30.0,-100.00,North,0,0.0,-999.0,70,-99.99,,,-99.99,,2013-05-28 21:43:00,
2013-05-28 17:12:00,69.0,56.0,-100.00,North,0,0.0,-999.0,63,-99.99,,,-99.99,,2013-05-28 22:12:00,
2013-05-28 17:22:00,70.0,56.0,-100.00,North,0,0.0,-999.0,62,-99.99,,,-99.99,,2013-05-28 22:22:00,
2013-05-28 17:32:00,66.0,51.0,-100.00,North,0,0.0,-999.0,59,-99.99,,,-99.99,,2013-05-28 22:32:00,
2013-05-28 18:02:00,76.0,66.0,-100.00,North,0,0.0,-999.0,71,-99.99,,,-99.99,,2013-05-28 23:02:00,
2013-05-28 18:11:00,76.0,65.0,-100.00,North,0,0.0,-999.0,70,-99.99,,,-99.99,,2013-05-28 23:11:00,
2013-05-28 18:22:00,75.0,65.0,-100.00,North,0,0.0,-999.0,71,-99.99,,,-99.99,,2013-05-28 23:22:00,
2013-05-28 18:32:00,75.0,65.0,-100.00,North,0,0.0,-999.0,70,-99.99,,,-99.99,,2013-05-28 23:32:00,
2013-05-28 18:42:00,75.0,66.0,-100.00,North,0,0.0,-999.0,73,-99.99,,,-99.99,,2013-05-28 23:42:00,
2013-05-28 18:52:00,75.0,67.0,-100.00,North,0,0.0,-999.0,76,-99.99,,,-99.99,,2013-05-28 23:52:00,
2013-05-28 19:02:00,75.0,66.0,-100.00,North,0,0.0,-999.0,75,-99.99,,,-99.99,,2013-05-29 00:02:00,
2013-05-28 19:11:00,75.0,66.0,-100.00,North,0,0.0,-999.0,75,-99.99,,,-99.99,,2013-05-29 00:11:00,
2013-05-28 19:21:00,74.0,67.0,-100.00,North,0,0.0,-999.0,79,-99.99,,,-99.99,,2013-05-29 00:21:00,
2013-05-28 19:32:00,74.0,67.0,-100.00,North,0,0.0,-999.0,79,-99.99,,,-99.99,,2013-05-29 00:32:00,
2013-05-28 19:42:00,74.0,68.0,-100.00,North,0,0.0,-999.0,80,-99.99,,,-99.99,,2013-05-29 00:42:00,
2013-05-28 19:52:00,73.0,63.0,-100.00,North,0,0.0,-999.0,69,-99.99,,,-99.99,,2013-05-29 00:52:00,
2013-05-28 20:01:00,72.0,61.0,-100.00,North,0,0.0,-999.0,69,-99.99,,,-99.99,,2013-05-29 01:01:00,
2013-05-28 20:11:00,72.0,63.0,-100.00,North,0,0.0,-999.0,73,-99.99,,,-99.99,,2013-05-29 01:11:00,
2013-05-28 20:22:00,63.0,55.0,-100.00,North,0,0.0,-999.0,75,-99.99,,,-99.99,,2013-05-29 01:22:00,
2013-05-28 20:32:00,71.0,60.0,-100.00,North,0,0.0,-999.0,69,-99.99,,,-99.99,,2013-05-29 01:32:00,
2013-05-28 20:42:00,70.0,61.0,-100.00,North,0,0.0,-999.0,74,-99.99,,,-99.99,,2013-05-29 01:42:00,
2013-05-28 20:52:00,70.0,61.0,-100.00,North,0,0.0,-999.0,74,-99.99,,,-99.99,,2013-05-29 01:52:00,
2013-05-28 21:02:00,69.0,67.0,-100.00,North,0,0.0,-999.0,94,-99.99,,,-99.99,,2013-05-29 02:02:00,
2013-05-28 21:12:00,68.0,66.0,-100.00,North,0,0.0,-999.0,94,-99.99,,,-99.99,,2013-05-29 02:12:00,
2013-05-28 21:21:00,68.0,67.0,-100.00,North,0,0.0,-999.0,97,-99.99,,,-99.99,,2013-05-29 02:21:00,
2013-05-28 21:32:00,67.0,67.0,-100.00,North,0,0.0,-999.0,98,-99.99,,,-99.99,,2013-05-29 02:32:00,
2013-05-28 21:42:00,67.0,67.0,-100.00,North,0,0.0,-999.0,99,-99.99,,,-99.99,,2013-05-29 02:42:00,
2013-05-28 21:51:00,67.0,67.0,-100.00,North,0,0.0,-999.0,99,-99.99,,,-99.99,,2013-05-29 02:51:00,
2013-05-28 22:02:00,66.0,-99.9,-100.00,North,0,0.0,-999.0,-999,-99.99,,,-99.99,,2013-05-29 03:02:00,
2013-05-28 22:12:00,65.0,-99.9,-100.00,North,0,0.0,-999.0,-999,-99.99,,,-99.99,,2013-05-29 03:12:00,
2013-05-28 22:22:00,64.0,-99.9,-100.00,North,0,0.0,-999.0,-999,-99.99,,,-99.99,,2013-05-29 03:22:00,
2013-05-28 22:33:00,65.0,64.0,-100.00,North,0,0.0,-999.0,98,-99.99,,,-99.99,,2013-05-29 03:33:00,
2013-05-28 22:43:00,65.0,64.0,-100.00,North,0,0.0,-999.0,97,-99.99,,,-99.99,,2013-05-29 03:43:00,
2013-05-28 22:53:00,65.0,-99.9,-100.00,North,0,0.0,-999.0,-999,-99.99,,,-99.99,,2013-05-29 03:53:00,
2013-05-28 23:03:00,60.0,-99.9,-100.00,North,0,0.0,-999.0,-999,-99.99,,,-99.99,,2013-05-29 04:03:00,
2013-05-28 23:23:00,64.0,63.0,-100.00,North,0,0.0,-999.0,97,-99.99,,,-99.99,,2013-05-29 04:23:00,
2013-05-28 23:33:00,64.0,63.0,-100.00,North,0,0.0,-999.0,94,-99.99,,,-99.99,,2013-05-29 04:33:00,
2013-05-28 23:42:00,65.0,62.0,-100.00,North,0,0.0,-999.0,92,-99.99,,,-99.99,,2013-05-29 04:42:00,
2013-05-28 23:52:00,65.0,62.0,-100.00,North,0,0.0,-999.0,91,-99.99,,,-99.99,,2013-05-29 04:52:00,